Corning, New York
Current Conditions -  °F | °C
As of 12:53 PM on Saturday 22 Nov 2014 (Local Time) from KELM Reporting Station
Overcast Overcast  
Wind Chill: 33°   Ceiling: 4500
Heat Index: 41°   Visibility: 10mi
Dew Point:   Wind: 15mph
Humidity: 25%   Direction: 250°WSW
Pressure: 30.13"   Gusts: NA
Location:  42.14°N, 77.05°W
Report Text: KELM 221753Z 25013KT 10SM OVC045 05/M14 A3013 RMK AO2 SLP217 T00501139 10050 21100 58046
Loading
Personal Weather Stations






























Interactive Weather Map New forecast layout! Learn more

10-Day Weather Forecast

Advertisements
Track Severe Weather on mobile